sensor_id;sensor_type;location;lat;lon;timestamp;P1;durP1;ratioP1;P2;durP2;ratioP2
79052;SDS011;68451;49.510;6.026;2024-01-27T00:00:03;9.53;;;6.27;;
79052;SDS011;68451;49.510;6.026;2024-01-27T00:02:30;12.83;;;6.73;;
79052;SDS011;68451;49.510;6.026;2024-01-27T00:04:57;7.87;;;5.77;;
79052;SDS011;68451;49.510;6.026;2024-01-27T00:07:24;9.73;;;5.87;;
79052;SDS011;68451;49.510;6.026;2024-01-27T00:09:51;14.30;;;6.30;;
79052;SDS011;68451;49.510;6.026;2024-01-27T00:12:18;12.23;;;6.47;;
79052;SDS011;68451;49.510;6.026;2024-01-27T00:14:45;13.03;;;7.83;;
79052;SDS011;68451;49.510;6.026;2024-01-27T00:17:12;11.97;;;6.20;;
79052;SDS011;68451;49.510;6.026;2024-01-27T00:19:39;10.57;;;5.97;;
79052;SDS011;68451;49.510;6.026;2024-01-27T00:22:07;10.90;;;6.17;;
79052;SDS011;68451;49.510;6.026;2024-01-27T00:24:34;11.17;;;5.53;;
79052;SDS011;68451;49.510;6.026;2024-01-27T00:27:01;10.43;;;6.27;;
79052;SDS011;68451;49.510;6.026;2024-01-27T00:29:28;14.47;;;7.07;;
79052;SDS011;68451;49.510;6.026;2024-01-27T00:31:55;18.70;;;8.57;;
79052;SDS011;68451;49.510;6.026;2024-01-27T00:34:22;12.90;;;6.77;;
79052;SDS011;68451;49.510;6.026;2024-01-27T00:36:49;21.80;;;8.00;;
79052;SDS011;68451;49.510;6.026;2024-01-27T00:39:16;13.10;;;7.03;;
79052;SDS011;68451;49.510;6.026;2024-01-27T00:41:44;14.10;;;6.20;;
79052;SDS011;68451;49.510;6.026;2024-01-27T00:44:11;14.67;;;6.87;;
79052;SDS011;68451;49.510;6.026;2024-01-27T00:46:38;14.33;;;7.27;;
79052;SDS011;68451;49.510;6.026;2024-01-27T00:49:05;11.10;;;6.03;;
79052;SDS011;68451;49.510;6.026;2024-01-27T00:51:32;15.67;;;7.20;;
79052;SDS011;68451;49.510;6.026;2024-01-27T00:53:59;12.27;;;6.67;;
79052;SDS011;68451;49.510;6.026;2024-01-27T00:56:26;14.47;;;6.83;;
79052;SDS011;68451;49.510;6.026;2024-01-27T00:58:53;13.73;;;7.87;;
79052;SDS011;68451;49.510;6.026;2024-01-27T01:01:20;13.67;;;7.37;;
79052;SDS011;68451;49.510;6.026;2024-01-27T01:03:48;14.57;;;7.73;;
79052;SDS011;68451;49.510;6.026;2024-01-27T01:06:15;13.80;;;7.03;;
79052;SDS011;68451;49.510;6.026;2024-01-27T01:08:42;13.90;;;8.40;;
79052;SDS011;68451;49.510;6.026;2024-01-27T01:11:09;13.93;;;6.70;;
79052;SDS011;68451;49.510;6.026;2024-01-27T01:13:36;12.27;;;6.97;;
79052;SDS011;68451;49.510;6.026;2024-01-27T01:16:03;10.93;;;7.10;;
79052;SDS011;68451;49.510;6.026;2024-01-27T01:18:31;12.70;;;7.07;;
79052;SDS011;68451;49.510;6.026;2024-01-27T01:20:59;14.17;;;7.63;;
79052;SDS011;68451;49.510;6.026;2024-01-27T01:23:26;17.57;;;7.00;;
79052;SDS011;68451;49.510;6.026;2024-01-27T01:25:53;13.60;;;7.17;;
79052;SDS011;68451;49.510;6.026;2024-01-27T01:28:20;14.57;;;7.30;;
79052;SDS011;68451;49.510;6.026;2024-01-27T01:30:46;11.97;;;6.83;;
79052;SDS011;68451;49.510;6.026;2024-01-27T01:33:13;16.50;;;7.70;;
79052;SDS011;68451;49.510;6.026;2024-01-27T01:35:41;13.07;;;6.30;;
79052;SDS011;68451;49.510;6.026;2024-01-27T01:38:07;11.00;;;7.13;;
79052;SDS011;68451;49.510;6.026;2024-01-27T01:40:34;12.73;;;7.30;;
79052;SDS011;68451;49.510;6.026;2024-01-27T01:43:01;11.63;;;6.83;;
79052;SDS011;68451;49.510;6.026;2024-01-27T01:45:30;13.93;;;6.50;;
79052;SDS011;68451;49.510;6.026;2024-01-27T01:47:58;8.70;;;6.10;;
79052;SDS011;68451;49.510;6.026;2024-01-27T01:50:25;10.87;;;6.33;;
79052;SDS011;68451;49.510;6.026;2024-01-27T01:52:52;10.87;;;6.63;;
79052;SDS011;68451;49.510;6.026;2024-01-27T01:55:20;10.07;;;7.40;;
79052;SDS011;68451;49.510;6.026;2024-01-27T01:57:47;21.90;;;7.33;;
79052;SDS011;68451;49.510;6.026;2024-01-27T02:00:15;17.10;;;6.80;;
79052;SDS011;68451;49.510;6.026;2024-01-27T02:02:43;12.47;;;6.97;;
79052;SDS011;68451;49.510;6.026;2024-01-27T02:05:12;11.20;;;6.30;;
79052;SDS011;68451;49.510;6.026;2024-01-27T02:07:39;14.87;;;6.33;;
79052;SDS011;68451;49.510;6.026;2024-01-27T02:10:11;15.50;;;9.10;;
79052;SDS011;68451;49.510;6.026;2024-01-27T02:12:40;13.80;;;7.93;;
79052;SDS011;68451;49.510;6.026;2024-01-27T02:15:10;21.97;;;8.70;;
79052;SDS011;68451;49.510;6.026;2024-01-27T02:17:41;12.50;;;6.53;;
79052;SDS011;68451;49.510;6.026;2024-01-27T02:20:08;11.93;;;7.17;;
79052;SDS011;68451;49.510;6.026;2024-01-27T02:22:35;12.73;;;6.77;;
79052;SDS011;68451;49.510;6.026;2024-01-27T02:25:02;12.73;;;7.63;;
79052;SDS011;68451;49.510;6.026;2024-01-27T02:27:30;11.70;;;7.17;;
79052;SDS011;68451;49.510;6.026;2024-01-27T02:29:57;14.43;;;6.30;;
79052;SDS011;68451;49.510;6.026;2024-01-27T02:32:24;12.33;;;6.40;;
79052;SDS011;68451;49.510;6.026;2024-01-27T02:34:51;9.80;;;6.33;;
79052;SDS011;68451;49.510;6.026;2024-01-27T02:37:18;10.60;;;6.97;;
79052;SDS011;68451;49.510;6.026;2024-01-27T02:39:45;10.73;;;7.00;;
79052;SDS011;68451;49.510;6.026;2024-01-27T02:42:12;15.30;;;7.27;;
79052;SDS011;68451;49.510;6.026;2024-01-27T02:44:39;10.93;;;7.37;;
79052;SDS011;68451;49.510;6.026;2024-01-27T02:47:06;13.40;;;8.00;;
79052;SDS011;68451;49.510;6.026;2024-01-27T02:49:33;9.83;;;6.37;;
79052;SDS011;68451;49.510;6.026;2024-01-27T02:52:00;14.83;;;6.37;;
79052;SDS011;68451;49.510;6.026;2024-01-27T02:54:27;12.23;;;6.63;;
79052;SDS011;68451;49.510;6.026;2024-01-27T02:56:54;11.53;;;6.90;;
79052;SDS011;68451;49.510;6.026;2024-01-27T02:59:20;10.20;;;6.73;;
79052;SDS011;68451;49.510;6.026;2024-01-27T03:01:47;14.23;;;7.13;;
79052;SDS011;68451;49.510;6.026;2024-01-27T03:04:14;11.97;;;7.33;;
79052;SDS011;68451;49.510;6.026;2024-01-27T03:06:41;11.37;;;7.37;;
79052;SDS011;68451;49.510;6.026;2024-01-27T03:09:08;9.90;;;6.07;;
79052;SDS011;68451;49.510;6.026;2024-01-27T03:11:37;11.83;;;7.23;;
79052;SDS011;68451;49.510;6.026;2024-01-27T03:14:03;14.73;;;6.87;;
79052;SDS011;68451;49.510;6.026;2024-01-27T03:16:31;11.70;;;7.70;;
79052;SDS011;68451;49.510;6.026;2024-01-27T03:18:58;13.10;;;7.80;;
79052;SDS011;68451;49.510;6.026;2024-01-27T03:21:26;9.93;;;6.70;;
79052;SDS011;68451;49.510;6.026;2024-01-27T03:23:53;12.33;;;6.57;;
79052;SDS011;68451;49.510;6.026;2024-01-27T03:26:20;9.83;;;6.33;;
79052;SDS011;68451;49.510;6.026;2024-01-27T03:28:47;13.53;;;7.47;;
79052;SDS011;68451;49.510;6.026;2024-01-27T03:31:14;15.33;;;7.07;;
79052;SDS011;68451;49.510;6.026;2024-01-27T03:33:40;13.53;;;6.80;;
79052;SDS011;68451;49.510;6.026;2024-01-27T03:36:11;11.63;;;6.93;;
79052;SDS011;68451;49.510;6.026;2024-01-27T03:38:41;10.33;;;6.53;;
79052;SDS011;68451;49.510;6.026;2024-01-27T03:41:08;11.03;;;6.03;;
79052;SDS011;68451;49.510;6.026;2024-01-27T03:43:35;15.37;;;7.20;;
79052;SDS011;68451;49.510;6.026;2024-01-27T03:46:02;10.37;;;7.13;;
79052;SDS011;68451;49.510;6.026;2024-01-27T03:48:30;14.43;;;6.73;;
79052;SDS011;68451;49.510;6.026;2024-01-27T03:50:57;7.13;;;5.90;;
79052;SDS011;68451;49.510;6.026;2024-01-27T03:53:24;11.67;;;6.53;;
79052;SDS011;68451;49.510;6.026;2024-01-27T03:55:50;12.50;;;5.70;;
79052;SDS011;68451;49.510;6.026;2024-01-27T03:58:17;14.37;;;6.73;;
79052;SDS011;68451;49.510;6.026;2024-01-27T04:00:44;13.70;;;6.87;;
79052;SDS011;68451;49.510;6.026;2024-01-27T04:03:12;15.87;;;7.40;;
79052;SDS011;68451;49.510;6.026;2024-01-27T04:05:39;9.43;;;5.90;;
79052;SDS011;68451;49.510;6.026;2024-01-27T04:08:06;10.27;;;5.90;;
79052;SDS011;68451;49.510;6.026;2024-01-27T04:10:33;12.37;;;6.43;;
79052;SDS011;68451;49.510;6.026;2024-01-27T04:13:00;14.07;;;5.50;;
79052;SDS011;68451;49.510;6.026;2024-01-27T04:15:27;11.03;;;6.87;;
79052;SDS011;68451;49.510;6.026;2024-01-27T04:17:54;13.83;;;7.23;;
79052;SDS011;68451;49.510;6.026;2024-01-27T04:20:22;13.77;;;6.17;;
79052;SDS011;68451;49.510;6.026;2024-01-27T04:22:49;10.97;;;6.13;;
79052;SDS011;68451;49.510;6.026;2024-01-27T04:25:16;12.27;;;5.73;;
79052;SDS011;68451;49.510;6.026;2024-01-27T04:27:42;13.90;;;7.57;;
79052;SDS011;68451;49.510;6.026;2024-01-27T04:30:10;11.47;;;6.80;;
79052;SDS011;68451;49.510;6.026;2024-01-27T04:32:38;8.90;;;5.77;;
79052;SDS011;68451;49.510;6.026;2024-01-27T04:35:09;11.90;;;7.70;;
79052;SDS011;68451;49.510;6.026;2024-01-27T04:37:37;12.93;;;5.80;;
79052;SDS011;68451;49.510;6.026;2024-01-27T04:40:07;11.20;;;6.07;;
79052;SDS011;68451;49.510;6.026;2024-01-27T04:42:34;12.40;;;7.30;;
79052;SDS011;68451;49.510;6.026;2024-01-27T04:45:07;17.20;;;6.60;;
79052;SDS011;68451;49.510;6.026;2024-01-27T04:47:34;10.37;;;6.43;;
79052;SDS011;68451;49.510;6.026;2024-01-27T04:50:01;10.73;;;6.77;;
79052;SDS011;68451;49.510;6.026;2024-01-27T04:52:28;14.03;;;5.60;;
79052;SDS011;68451;49.510;6.026;2024-01-27T04:54:55;13.20;;;7.37;;
79052;SDS011;68451;49.510;6.026;2024-01-27T04:57:22;12.90;;;5.90;;
79052;SDS011;68451;49.510;6.026;2024-01-27T04:59:48;10.73;;;5.20;;
79052;SDS011;68451;49.510;6.026;2024-01-27T05:02:17;10.17;;;5.63;;
79052;SDS011;68451;49.510;6.026;2024-01-27T05:04:45;11.47;;;6.73;;
79052;SDS011;68451;49.510;6.026;2024-01-27T05:07:12;10.27;;;5.53;;
79052;SDS011;68451;49.510;6.026;2024-01-27T05:09:39;11.30;;;6.87;;
79052;SDS011;68451;49.510;6.026;2024-01-27T05:12:06;11.23;;;5.53;;
79052;SDS011;68451;49.510;6.026;2024-01-27T05:14:33;14.57;;;6.53;;
79052;SDS011;68451;49.510;6.026;2024-01-27T05:17:00;12.20;;;6.37;;
79052;SDS011;68451;49.510;6.026;2024-01-27T05:19:27;11.67;;;6.87;;
79052;SDS011;68451;49.510;6.026;2024-01-27T05:21:54;10.90;;;6.83;;
79052;SDS011;68451;49.510;6.026;2024-01-27T05:24:21;11.07;;;6.60;;
79052;SDS011;68451;49.510;6.026;2024-01-27T05:26:48;12.30;;;6.00;;
79052;SDS011;68451;49.510;6.026;2024-01-27T05:29:15;12.57;;;7.43;;
79052;SDS011;68451;49.510;6.026;2024-01-27T05:31:42;9.47;;;6.07;;
79052;SDS011;68451;49.510;6.026;2024-01-27T05:34:10;10.57;;;5.93;;
79052;SDS011;68451;49.510;6.026;2024-01-27T05:36:38;9.80;;;5.67;;
79052;SDS011;68451;49.510;6.026;2024-01-27T05:39:04;10.37;;;6.27;;
79052;SDS011;68451;49.510;6.026;2024-01-27T05:41:32;11.63;;;5.97;;
79052;SDS011;68451;49.510;6.026;2024-01-27T05:43:59;11.83;;;5.30;;
79052;SDS011;68451;49.510;6.026;2024-01-27T05:46:26;13.07;;;6.23;;
79052;SDS011;68451;49.510;6.026;2024-01-27T05:48:53;10.67;;;5.13;;
79052;SDS011;68451;49.510;6.026;2024-01-27T05:51:21;10.07;;;5.80;;
79052;SDS011;68451;49.510;6.026;2024-01-27T05:53:49;9.80;;;6.03;;
79052;SDS011;68451;49.510;6.026;2024-01-27T05:56:16;11.53;;;5.83;;
79052;SDS011;68451;49.510;6.026;2024-01-27T05:58:49;13.90;;;5.40;;
79052;SDS011;68451;49.510;6.026;2024-01-27T06:01:19;13.53;;;6.33;;
79052;SDS011;68451;49.510;6.026;2024-01-27T06:03:46;16.87;;;7.50;;
79052;SDS011;68451;49.510;6.026;2024-01-27T06:06:14;19.07;;;7.33;;
79052;SDS011;68451;49.510;6.026;2024-01-27T06:08:41;13.97;;;6.63;;
79052;SDS011;68451;49.510;6.026;2024-01-27T06:11:08;13.40;;;6.33;;
79052;SDS011;68451;49.510;6.026;2024-01-27T06:13:36;12.73;;;6.37;;
79052;SDS011;68451;49.510;6.026;2024-01-27T06:16:07;9.00;;;5.90;;
79052;SDS011;68451;49.510;6.026;2024-01-27T06:18:38;11.90;;;6.90;;
79052;SDS011;68451;49.510;6.026;2024-01-27T06:21:05;10.17;;;6.60;;
79052;SDS011;68451;49.510;6.026;2024-01-27T06:23:33;11.00;;;6.00;;
79052;SDS011;68451;49.510;6.026;2024-01-27T06:26:04;17.43;;;6.23;;
79052;SDS011;68451;49.510;6.026;2024-01-27T06:28:33;7.50;;;6.47;;
79052;SDS011;68451;49.510;6.026;2024-01-27T06:31:02;12.30;;;6.30;;
79052;SDS011;68451;49.510;6.026;2024-01-27T06:33:30;13.33;;;5.90;;
79052;SDS011;68451;49.510;6.026;2024-01-27T06:35:58;13.93;;;6.87;;
79052;SDS011;68451;49.510;6.026;2024-01-27T06:38:26;12.37;;;5.60;;
79052;SDS011;68451;49.510;6.026;2024-01-27T06:40:53;11.33;;;5.87;;
79052;SDS011;68451;49.510;6.026;2024-01-27T06:43:20;14.10;;;5.53;;
79052;SDS011;68451;49.510;6.026;2024-01-27T06:45:47;8.93;;;4.93;;
79052;SDS011;68451;49.510;6.026;2024-01-27T06:48:14;9.40;;;5.87;;
79052;SDS011;68451;49.510;6.026;2024-01-27T06:50:41;13.07;;;7.00;;
79052;SDS011;68451;49.510;6.026;2024-01-27T06:53:08;9.33;;;5.63;;
79052;SDS011;68451;49.510;6.026;2024-01-27T06:55:37;8.57;;;5.93;;
79052;SDS011;68451;49.510;6.026;2024-01-27T06:58:08;8.80;;;5.13;;
79052;SDS011;68451;49.510;6.026;2024-01-27T07:00:35;13.50;;;5.93;;
79052;SDS011;68451;49.510;6.026;2024-01-27T07:03:03;9.93;;;5.43;;
79052;SDS011;68451;49.510;6.026;2024-01-27T07:05:30;10.87;;;6.00;;
79052;SDS011;68451;49.510;6.026;2024-01-27T07:07:59;13.50;;;5.57;;
79052;SDS011;68451;49.510;6.026;2024-01-27T07:10:26;10.53;;;5.90;;
79052;SDS011;68451;49.510;6.026;2024-01-27T07:12:53;12.57;;;6.27;;
79052;SDS011;68451;49.510;6.026;2024-01-27T07:15:20;8.43;;;6.87;;
79052;SDS011;68451;49.510;6.026;2024-01-27T07:17:48;15.13;;;7.90;;
79052;SDS011;68451;49.510;6.026;2024-01-27T07:20:15;7.70;;;5.00;;
79052;SDS011;68451;49.510;6.026;2024-01-27T07:22:42;9.30;;;5.10;;
79052;SDS011;68451;49.510;6.026;2024-01-27T07:25:08;14.80;;;7.43;;
79052;SDS011;68451;49.510;6.026;2024-01-27T07:27:36;7.47;;;4.70;;
79052;SDS011;68451;49.510;6.026;2024-01-27T07:30:03;10.27;;;6.10;;
79052;SDS011;68451;49.510;6.026;2024-01-27T07:32:32;13.40;;;5.73;;
79052;SDS011;68451;49.510;6.026;2024-01-27T07:34:58;14.53;;;7.17;;
79052;SDS011;68451;49.510;6.026;2024-01-27T07:37:25;11.20;;;5.33;;
79052;SDS011;68451;49.510;6.026;2024-01-27T07:39:52;11.23;;;6.33;;
79052;SDS011;68451;49.510;6.026;2024-01-27T07:42:19;10.57;;;5.93;;
79052;SDS011;68451;49.510;6.026;2024-01-27T07:44:46;15.60;;;7.67;;
79052;SDS011;68451;49.510;6.026;2024-01-27T07:47:13;9.33;;;6.63;;
79052;SDS011;68451;49.510;6.026;2024-01-27T07:49:40;10.70;;;6.37;;
79052;SDS011;68451;49.510;6.026;2024-01-27T07:52:07;14.17;;;6.60;;
79052;SDS011;68451;49.510;6.026;2024-01-27T07:54:34;10.47;;;5.17;;
79052;SDS011;68451;49.510;6.026;2024-01-27T07:57:05;9.30;;;5.40;;
79052;SDS011;68451;49.510;6.026;2024-01-27T07:59:33;10.30;;;5.63;;
79052;SDS011;68451;49.510;6.026;2024-01-27T08:02:00;10.73;;;5.27;;
79052;SDS011;68451;49.510;6.026;2024-01-27T08:04:27;15.03;;;6.37;;
79052;SDS011;68451;49.510;6.026;2024-01-27T08:06:54;12.67;;;5.93;;
79052;SDS011;68451;49.510;6.026;2024-01-27T08:09:21;11.67;;;5.50;;
79052;SDS011;68451;49.510;6.026;2024-01-27T08:11:48;15.10;;;8.53;;
79052;SDS011;68451;49.510;6.026;2024-01-27T08:14:19;12.33;;;6.17;;
79052;SDS011;68451;49.510;6.026;2024-01-27T08:16:47;11.13;;;6.40;;
79052;SDS011;68451;49.510;6.026;2024-01-27T08:19:14;12.60;;;6.57;;
79052;SDS011;68451;49.510;6.026;2024-01-27T08:21:47;13.07;;;5.83;;
79052;SDS011;68451;49.510;6.026;2024-01-27T08:24:14;12.67;;;6.63;;
79052;SDS011;68451;49.510;6.026;2024-01-27T08:26:42;13.77;;;6.90;;
79052;SDS011;68451;49.510;6.026;2024-01-27T08:29:09;11.23;;;7.13;;
79052;SDS011;68451;49.510;6.026;2024-01-27T08:31:36;12.57;;;6.93;;
79052;SDS011;68451;49.510;6.026;2024-01-27T08:34:05;16.77;;;7.03;;
79052;SDS011;68451;49.510;6.026;2024-01-27T08:36:33;12.57;;;6.47;;
79052;SDS011;68451;49.510;6.026;2024-01-27T08:39:01;14.47;;;7.53;;
79052;SDS011;68451;49.510;6.026;2024-01-27T08:41:28;15.27;;;7.23;;
79052;SDS011;68451;49.510;6.026;2024-01-27T08:43:55;11.93;;;6.97;;
79052;SDS011;68451;49.510;6.026;2024-01-27T08:46:22;9.47;;;7.40;;
79052;SDS011;68451;49.510;6.026;2024-01-27T08:48:49;15.77;;;6.50;;
79052;SDS011;68451;49.510;6.026;2024-01-27T08:51:16;10.90;;;6.03;;
79052;SDS011;68451;49.510;6.026;2024-01-27T08:53:44;13.83;;;8.03;;
79052;SDS011;68451;49.510;6.026;2024-01-27T08:56:17;12.17;;;7.73;;
79052;SDS011;68451;49.510;6.026;2024-01-27T08:58:44;13.97;;;7.10;;
79052;SDS011;68451;49.510;6.026;2024-01-27T09:01:11;10.60;;;6.40;;
79052;SDS011;68451;49.510;6.026;2024-01-27T09:03:41;13.67;;;6.53;;
79052;SDS011;68451;49.510;6.026;2024-01-27T09:06:08;11.70;;;5.83;;
79052;SDS011;68451;49.510;6.026;2024-01-27T09:08:36;11.87;;;7.30;;
79052;SDS011;68451;49.510;6.026;2024-01-27T09:11:03;18.17;;;12.27;;
79052;SDS011;68451;49.510;6.026;2024-01-27T09:13:30;16.00;;;10.40;;
79052;SDS011;68451;49.510;6.026;2024-01-27T09:15:57;15.57;;;8.77;;
79052;SDS011;68451;49.510;6.026;2024-01-27T09:18:26;20.03;;;8.07;;
79052;SDS011;68451;49.510;6.026;2024-01-27T09:20:54;10.07;;;7.60;;
79052;SDS011;68451;49.510;6.026;2024-01-27T09:23:21;13.23;;;7.47;;
79052;SDS011;68451;49.510;6.026;2024-01-27T09:25:48;13.43;;;7.17;;
79052;SDS011;68451;49.510;6.026;2024-01-27T09:28:15;10.17;;;6.50;;
79052;SDS011;68451;49.510;6.026;2024-01-27T09:30:42;10.93;;;7.20;;
79052;SDS011;68451;49.510;6.026;2024-01-27T09:33:10;15.20;;;8.43;;
79052;SDS011;68451;49.510;6.026;2024-01-27T09:35:38;12.80;;;7.37;;
79052;SDS011;68451;49.510;6.026;2024-01-27T09:38:05;13.33;;;7.80;;
79052;SDS011;68451;49.510;6.026;2024-01-27T09:40:34;13.67;;;6.63;;
79052;SDS011;68451;49.510;6.026;2024-01-27T09:43:01;13.67;;;6.87;;
79052;SDS011;68451;49.510;6.026;2024-01-27T09:45:28;9.80;;;5.40;;
79052;SDS011;68451;49.510;6.026;2024-01-27T09:47:59;10.07;;;5.50;;
79052;SDS011;68451;49.510;6.026;2024-01-27T09:50:27;8.45;;;5.03;;
79052;SDS011;68451;49.510;6.026;2024-01-27T09:52:54;9.50;;;4.83;;
79052;SDS011;68451;49.510;6.026;2024-01-27T09:55:21;9.37;;;5.43;;
79052;SDS011;68451;49.510;6.026;2024-01-27T09:57:51;11.97;;;6.50;;
79052;SDS011;68451;49.510;6.026;2024-01-27T10:00:18;16.30;;;7.30;;
79052;SDS011;68451;49.510;6.026;2024-01-27T10:02:46;11.13;;;7.03;;
79052;SDS011;68451;49.510;6.026;2024-01-27T10:05:13;10.13;;;5.87;;
79052;SDS011;68451;49.510;6.026;2024-01-27T10:07:41;10.27;;;7.00;;
79052;SDS011;68451;49.510;6.026;2024-01-27T10:10:09;12.33;;;6.43;;
79052;SDS011;68451;49.510;6.026;2024-01-27T10:12:40;12.67;;;7.40;;
79052;SDS011;68451;49.510;6.026;2024-01-27T10:15:20;10.87;;;7.00;;
79052;SDS011;68451;49.510;6.026;2024-01-27T10:17:48;12.63;;;8.07;;
79052;SDS011;68451;49.510;6.026;2024-01-27T10:20:16;14.07;;;8.30;;
79052;SDS011;68451;49.510;6.026;2024-01-27T10:22:45;15.40;;;7.67;;
79052;SDS011;68451;49.510;6.026;2024-01-27T10:25:12;13.17;;;8.73;;
79052;SDS011;68451;49.510;6.026;2024-01-27T10:27:39;12.13;;;8.47;;
79052;SDS011;68451;49.510;6.026;2024-01-27T10:30:07;11.70;;;7.50;;
79052;SDS011;68451;49.510;6.026;2024-01-27T10:32:43;15.43;;;8.40;;
79052;SDS011;68451;49.510;6.026;2024-01-27T10:35:10;17.43;;;9.03;;
79052;SDS011;68451;49.510;6.026;2024-01-27T10:37:37;14.70;;;8.60;;
79052;SDS011;68451;49.510;6.026;2024-01-27T10:40:05;19.27;;;9.93;;
79052;SDS011;68451;49.510;6.026;2024-01-27T10:42:36;15.57;;;8.25;;
79052;SDS011;68451;49.510;6.026;2024-01-27T10:45:04;14.90;;;8.23;;
79052;SDS011;68451;49.510;6.026;2024-01-27T10:47:32;15.43;;;8.43;;
79052;SDS011;68451;49.510;6.026;2024-01-27T10:50:00;16.47;;;9.47;;
79052;SDS011;68451;49.510;6.026;2024-01-27T10:52:28;14.47;;;8.70;;
79052;SDS011;68451;49.510;6.026;2024-01-27T10:54:59;12.87;;;8.67;;
79052;SDS011;68451;49.510;6.026;2024-01-27T10:57:30;17.50;;;8.33;;
79052;SDS011;68451;49.510;6.026;2024-01-27T10:59:57;14.43;;;8.77;;
79052;SDS011;68451;49.510;6.026;2024-01-27T11:02:24;12.63;;;8.47;;
79052;SDS011;68451;49.510;6.026;2024-01-27T11:04:51;13.37;;;8.97;;
79052;SDS011;68451;49.510;6.026;2024-01-27T11:07:21;16.57;;;8.90;;
79052;SDS011;68451;49.510;6.026;2024-01-27T11:09:49;15.43;;;7.77;;
79052;SDS011;68451;49.510;6.026;2024-01-27T11:12:19;14.30;;;8.27;;
79052;SDS011;68451;49.510;6.026;2024-01-27T11:14:48;16.23;;;8.37;;
79052;SDS011;68451;49.510;6.026;2024-01-27T11:17:15;11.97;;;7.80;;
79052;SDS011;68451;49.510;6.026;2024-01-27T11:19:46;17.33;;;8.03;;
79052;SDS011;68451;49.510;6.026;2024-01-27T11:22:26;14.50;;;8.23;;
79052;SDS011;68451;49.510;6.026;2024-01-27T11:25:07;13.83;;;8.30;;
79052;SDS011;68451;49.510;6.026;2024-01-27T11:27:37;16.50;;;8.27;;
79052;SDS011;68451;49.510;6.026;2024-01-27T11:30:05;12.43;;;7.67;;
79052;SDS011;68451;49.510;6.026;2024-01-27T11:32:35;17.03;;;8.27;;
79052;SDS011;68451;49.510;6.026;2024-01-27T11:35:03;17.30;;;8.10;;
79052;SDS011;68451;49.510;6.026;2024-01-27T11:37:31;14.27;;;8.33;;
79052;SDS011;68451;49.510;6.026;2024-01-27T11:40:04;23.80;;;7.80;;
79052;SDS011;68451;49.510;6.026;2024-01-27T11:42:32;12.27;;;6.23;;
79052;SDS011;68451;49.510;6.026;2024-01-27T11:44:59;7.37;;;6.10;;
79052;SDS011;68451;49.510;6.026;2024-01-27T11:47:26;11.10;;;6.20;;
79052;SDS011;68451;49.510;6.026;2024-01-27T11:49:54;14.63;;;5.40;;
79052;SDS011;68451;49.510;6.026;2024-01-27T11:52:24;11.30;;;5.80;;
79052;SDS011;68451;49.510;6.026;2024-01-27T11:54:55;10.93;;;4.83;;
79052;SDS011;68451;49.510;6.026;2024-01-27T11:57:23;14.23;;;4.60;;
79052;SDS011;68451;49.510;6.026;2024-01-27T13:58:42;5.60;;;1.70;;
79052;SDS011;68451;49.510;6.026;2024-01-27T14:01:09;5.70;;;2.00;;
79052;SDS011;68451;49.510;6.026;2024-01-27T14:03:36;8.67;;;2.30;;
79052;SDS011;68451;49.510;6.026;2024-01-27T14:06:04;4.07;;;1.90;;
79052;SDS011;68451;49.510;6.026;2024-01-27T14:08:32;5.83;;;2.73;;
79052;SDS011;68451;49.510;6.026;2024-01-27T14:10:59;4.33;;;2.30;;
79052;SDS011;68451;49.510;6.026;2024-01-27T14:13:26;9.10;;;3.23;;
79052;SDS011;68451;49.510;6.026;2024-01-27T14:15:53;5.87;;;2.17;;
79052;SDS011;68451;49.510;6.026;2024-01-27T14:18:20;6.40;;;2.80;;
79052;SDS011;68451;49.510;6.026;2024-01-27T14:20:48;12.93;;;2.90;;
79052;SDS011;68451;49.510;6.026;2024-01-27T14:23:17;5.97;;;2.73;;
79052;SDS011;68451;49.510;6.026;2024-01-27T14:25:44;11.60;;;4.03;;
79052;SDS011;68451;49.510;6.026;2024-01-27T14:28:13;7.20;;;3.20;;
79052;SDS011;68451;49.510;6.026;2024-01-27T14:30:41;5.80;;;2.80;;
79052;SDS011;68451;49.510;6.026;2024-01-27T14:33:08;9.77;;;3.97;;
79052;SDS011;68451;49.510;6.026;2024-01-27T14:35:35;6.27;;;2.60;;
79052;SDS011;68451;49.510;6.026;2024-01-27T14:38:03;8.67;;;3.50;;
79052;SDS011;68451;49.510;6.026;2024-01-27T14:40:31;12.63;;;3.03;;
79052;SDS011;68451;49.510;6.026;2024-01-27T14:42:59;8.17;;;2.60;;
79052;SDS011;68451;49.510;6.026;2024-01-27T14:45:26;7.23;;;3.13;;
79052;SDS011;68451;49.510;6.026;2024-01-27T14:47:53;5.73;;;2.80;;
79052;SDS011;68451;49.510;6.026;2024-01-27T14:50:24;10.00;;;3.17;;
79052;SDS011;68451;49.510;6.026;2024-01-27T14:52:51;5.73;;;2.50;;
79052;SDS011;68451;49.510;6.026;2024-01-27T14:55:18;6.60;;;2.43;;
79052;SDS011;68451;49.510;6.026;2024-01-27T14:57:45;11.00;;;3.07;;
79052;SDS011;68451;49.510;6.026;2024-01-27T15:00:12;9.47;;;2.47;;
79052;SDS011;68451;49.510;6.026;2024-01-27T15:02:42;7.07;;;2.50;;
79052;SDS011;68451;49.510;6.026;2024-01-27T15:05:11;5.63;;;2.93;;
79052;SDS011;68451;49.510;6.026;2024-01-27T15:07:39;6.07;;;2.73;;
79052;SDS011;68451;49.510;6.026;2024-01-27T15:10:06;7.43;;;2.60;;
79052;SDS011;68451;49.510;6.026;2024-01-27T15:12:33;7.43;;;2.30;;
79052;SDS011;68451;49.510;6.026;2024-01-27T15:15:00;6.53;;;2.33;;
79052;SDS011;68451;49.510;6.026;2024-01-27T15:17:27;8.23;;;2.67;;
79052;SDS011;68451;49.510;6.026;2024-01-27T15:19:55;6.00;;;2.90;;
79052;SDS011;68451;49.510;6.026;2024-01-27T15:22:22;8.07;;;2.50;;
79052;SDS011;68451;49.510;6.026;2024-01-27T15:24:49;4.00;;;1.97;;
79052;SDS011;68451;49.510;6.026;2024-01-27T15:27:16;6.37;;;2.37;;
79052;SDS011;68451;49.510;6.026;2024-01-27T15:29:43;6.27;;;2.40;;
79052;SDS011;68451;49.510;6.026;2024-01-27T15:32:10;5.20;;;2.53;;
79052;SDS011;68451;49.510;6.026;2024-01-27T15:34:36;7.97;;;2.50;;
79052;SDS011;68451;49.510;6.026;2024-01-27T15:37:03;6.60;;;2.63;;
79052;SDS011;68451;49.510;6.026;2024-01-27T15:39:30;5.40;;;2.20;;
79052;SDS011;68451;49.510;6.026;2024-01-27T15:41:58;3.87;;;2.40;;
79052;SDS011;68451;49.510;6.026;2024-01-27T15:44:29;7.97;;;2.87;;
79052;SDS011;68451;49.510;6.026;2024-01-27T15:46:56;11.50;;;3.03;;
79052;SDS011;68451;49.510;6.026;2024-01-27T15:49:23;7.80;;;2.50;;
79052;SDS011;68451;49.510;6.026;2024-01-27T15:51:50;8.53;;;2.77;;
79052;SDS011;68451;49.510;6.026;2024-01-27T15:54:17;7.10;;;2.93;;
79052;SDS011;68451;49.510;6.026;2024-01-27T15:56:46;6.53;;;3.17;;
79052;SDS011;68451;49.510;6.026;2024-01-27T15:59:13;8.60;;;3.40;;
79052;SDS011;68451;49.510;6.026;2024-01-27T16:01:40;9.80;;;3.57;;
79052;SDS011;68451;49.510;6.026;2024-01-27T16:04:08;12.97;;;3.97;;
79052;SDS011;68451;49.510;6.026;2024-01-27T16:06:42;8.13;;;3.40;;
79052;SDS011;68451;49.510;6.026;2024-01-27T16:09:09;10.57;;;2.80;;
79052;SDS011;68451;49.510;6.026;2024-01-27T16:11:36;11.57;;;3.70;;
79052;SDS011;68451;49.510;6.026;2024-01-27T16:14:03;7.90;;;3.13;;
79052;SDS011;68451;49.510;6.026;2024-01-27T16:16:30;6.37;;;3.27;;
79052;SDS011;68451;49.510;6.026;2024-01-27T16:18:57;7.97;;;3.97;;
79052;SDS011;68451;49.510;6.026;2024-01-27T16:21:24;12.73;;;4.27;;
79052;SDS011;68451;49.510;6.026;2024-01-27T16:23:51;6.67;;;4.07;;
79052;SDS011;68451;49.510;6.026;2024-01-27T16:26:18;10.60;;;4.67;;
79052;SDS011;68451;49.510;6.026;2024-01-27T16:28:45;9.07;;;3.77;;
79052;SDS011;68451;49.510;6.026;2024-01-27T16:31:13;9.67;;;2.60;;
79052;SDS011;68451;49.510;6.026;2024-01-27T16:33:40;3.93;;;2.30;;
79052;SDS011;68451;49.510;6.026;2024-01-27T16:36:08;8.20;;;3.03;;
79052;SDS011;68451;49.510;6.026;2024-01-27T16:38:35;10.70;;;3.00;;